Metairie, LA (70002)

4:48 AM CDT on August 27, 2014 (GMT -0500)
Metairie Wx Central | Change Station
CLOSE
Current Station
Personal Weather Station
Location: Metairie, LA
Elevation: 10 ft
Nearby Weather Stations

Elev 10 ft 30.00 °N, 90.17 °W | Updated 14 minutes ago

Scattered Clouds
Scattered Clouds
81.1 °F
Feels Like 88 °F
N
0.0
Wind Variable Wind from ENE
Gusts 6.0 mph

Today
High -- | Low -- °F
--% Chance of Precip.
Yesterday
High -- | Low -- °F
Precip. -- in
6:34 AM 7:28 PM
Waxing Crescent, 3% visible
Pressure 29.97 in
Visibility 10.0 miles
Clouds Scattered Clouds 25000 ft
Heat Index 88 °F
Dew Point 76 °F
Humidity 85%
Rainfall 0.00 in
Snow Depth Not available.
UV 0 out of 12
Pollen 7.90 out of 12
Ozone Good
PM2.5 Good
Flu Activity Not available.
METAR KMSY 270853Z 09003KT 10SM SCT250 27/23 A2996 RMK AO2 SLP148 T02720233 56007

More Conditions Fewer Conditions

Pressure 29.97 in
Visibility 10.0 miles
Clouds Scattered Clouds 25000 ft
Heat Index 88 °F
Dew Point 76 °F
Humidity 85%
Rainfall 0.00 in
Snow Depth Not available.
UV 0 out of 12
Pollen 7.90 out of 12
Ozone Good
PM2.5 Good
Flu Activity Not available.
METAR KMSY 270853Z 09003KT 10SM SCT250 27/23 A2996 RMK AO2 SLP148 T02720233 56007

More Conditions Fewer Conditions

10-Day Weather Forecast

Almanac

Astronomy

Aug. 27, 2014 Rise Set
Actual Time 6:34 AM CDT 7:28 PM CDT
Civil Twilight 6:10 AM CDT 7:53 PM CDT
Nautical Twilight 5:41 AM CDT 8:22 PM CDT
Astronomical Twilight 5:11 AM CDT 8:52 PM CDT
Moon 8:19 AM CDT 8:34 PM CDT
Length of Visible Light 13h 43m
Length of Day
12h 53m
Tomorrow will be 1m 41s shorter.
Waxing Crescent, 3% of the Moon is Illuminated
Today
Waxing Crescent
Sep 2
First Quarter
Sep 8
Full
Sep 15
Last Quarter
Sep 24
New

Today's Extremes

State Highs State Lows

Community

WunderPhotos

Upload Photos

1,747,661 photos uploaded!

Nearby

Air Quality

  Air Quality AQ Index Pollutant
Yesterday Good
PM2.5
Yesterday Good
OZONE
Current Good
PM2.5
Current Good
OZONE
Wednesday Moderate
OZONE
Wednesday Good
PM2.5
Thursday Moderate
OZONE
Thursday Moderate
PM2.5

Snow Depth

Station Depth Elevation
No new snow has been reported.

Earthquake Activity

City Distance Mag. Time & Date
No recent earthquake activity has been reported nearby.
Minimum magnitude displayed is 2.5.

Coastal Water Temperatures

Place Temperature
New Canal, LA 84.0 °F
Shell Beach, LA 81.0 °F
Bayou Gauche, LA 84.9 °F

Nearby Weather Stations